sensor_id;sensor_type;location;lat;lon;timestamp;temperature;humidity
17879;DHT22;9065;51.050;13.758;2023-03-21T00:02:23;12.10;99.90
17879;DHT22;9065;51.050;13.758;2023-03-21T00:04:50;12.10;99.90
17879;DHT22;9065;51.050;13.758;2023-03-21T00:07:17;12.10;99.90
17879;DHT22;9065;51.050;13.758;2023-03-21T00:09:45;12.00;99.90
17879;DHT22;9065;51.050;13.758;2023-03-21T00:12:11;12.00;99.90
17879;DHT22;9065;51.050;13.758;2023-03-21T00:14:38;11.90;99.90
17879;DHT22;9065;51.050;13.758;2023-03-21T00:17:05;11.90;99.90
17879;DHT22;9065;51.050;13.758;2023-03-21T00:19:32;11.90;99.90
17879;DHT22;9065;51.050;13.758;2023-03-21T00:22:03;11.80;99.90
17879;DHT22;9065;51.050;13.758;2023-03-21T00:24:31;11.90;99.90
17879;DHT22;9065;51.050;13.758;2023-03-21T00:26:59;11.90;99.90
17879;DHT22;9065;51.050;13.758;2023-03-21T00:29:25;11.80;99.90
17879;DHT22;9065;51.050;13.758;2023-03-21T00:31:52;11.80;99.90
17879;DHT22;9065;51.050;13.758;2023-03-21T00:34:19;11.90;99.90
17879;DHT22;9065;51.050;13.758;2023-03-21T00:36:46;12.00;99.90
17879;DHT22;9065;51.050;13.758;2023-03-21T00:39:12;12.10;99.90
17879;DHT22;9065;51.050;13.758;2023-03-21T00:41:39;12.10;99.90
17879;DHT22;9065;51.050;13.758;2023-03-21T00:44:08;12.20;99.90
17879;DHT22;9065;51.050;13.758;2023-03-21T00:46:36;12.30;99.90
17879;DHT22;9065;51.050;13.758;2023-03-21T00:49:02;12.30;99.90
17879;DHT22;9065;51.050;13.758;2023-03-21T00:51:29;12.10;99.90
17879;DHT22;9065;51.050;13.758;2023-03-21T00:53:57;12.00;99.90
17879;DHT22;9065;51.050;13.758;2023-03-21T00:56:24;12.10;99.90
17879;DHT22;9065;51.050;13.758;2023-03-21T00:58:50;11.80;99.90
17879;DHT22;9065;51.050;13.758;2023-03-21T01:01:19;11.80;99.90
17879;DHT22;9065;51.050;13.758;2023-03-21T01:03:45;11.60;99.90
17879;DHT22;9065;51.050;13.758;2023-03-21T01:06:16;11.60;99.90
17879;DHT22;9065;51.050;13.758;2023-03-21T01:08:46;11.70;99.90
17879;DHT22;9065;51.050;13.758;2023-03-21T01:11:15;11.50;99.90
17879;DHT22;9065;51.050;13.758;2023-03-21T01:13:43;11.40;99.90
17879;DHT22;9065;51.050;13.758;2023-03-21T01:16:10;11.30;99.90
17879;DHT22;9065;51.050;13.758;2023-03-21T01:18:40;11.40;99.90
17879;DHT22;9065;51.050;13.758;2023-03-21T01:21:09;11.30;99.90
17879;DHT22;9065;51.050;13.758;2023-03-21T01:23:36;11.40;99.90
17879;DHT22;9065;51.050;13.758;2023-03-21T01:26:03;11.50;99.90
17879;DHT22;9065;51.050;13.758;2023-03-21T01:28:31;11.60;99.90
17879;DHT22;9065;51.050;13.758;2023-03-21T01:31:00;11.70;99.90
17879;DHT22;9065;51.050;13.758;2023-03-21T01:33:27;11.80;99.90
17879;DHT22;9065;51.050;13.758;2023-03-21T01:35:56;11.70;99.90
17879;DHT22;9065;51.050;13.758;2023-03-21T01:38:23;11.70;99.90
17879;DHT22;9065;51.050;13.758;2023-03-21T01:40:50;11.70;99.90
17879;DHT22;9065;51.050;13.758;2023-03-21T01:43:24;11.70;99.90
17879;DHT22;9065;51.050;13.758;2023-03-21T01:46:19;11.60;99.90
17879;DHT22;9065;51.050;13.758;2023-03-21T01:48:50;11.60;99.90
17879;DHT22;9065;51.050;13.758;2023-03-21T01:51:21;11.50;99.90
17879;DHT22;9065;51.050;13.758;2023-03-21T01:53:49;11.50;99.90
17879;DHT22;9065;51.050;13.758;2023-03-21T01:56:21;11.50;99.90
17879;DHT22;9065;51.050;13.758;2023-03-21T01:58:50;11.50;99.90
17879;DHT22;9065;51.050;13.758;2023-03-21T02:01:20;11.50;99.90
17879;DHT22;9065;51.050;13.758;2023-03-21T02:03:48;11.60;99.90
17879;DHT22;9065;51.050;13.758;2023-03-21T02:06:23;11.70;99.90
17879;DHT22;9065;51.050;13.758;2023-03-21T02:08:56;11.80;99.90
17879;DHT22;9065;51.050;13.758;2023-03-21T02:11:23;11.80;99.90
17879;DHT22;9065;51.050;13.758;2023-03-21T02:13:51;11.70;99.90
17879;DHT22;9065;51.050;13.758;2023-03-21T02:16:28;11.50;99.90
17879;DHT22;9065;51.050;13.758;2023-03-21T02:19:09;11.40;99.90
17879;DHT22;9065;51.050;13.758;2023-03-21T02:22:17;11.40;99.90
17879;DHT22;9065;51.050;13.758;2023-03-21T02:27:38;11.30;99.90
17879;DHT22;9065;51.050;13.758;2023-03-21T02:30:36;11.20;99.90
17879;DHT22;9065;51.050;13.758;2023-03-21T02:36:25;11.30;99.90
17879;DHT22;9065;51.050;13.758;2023-03-21T02:39:00;11.40;99.90
17879;DHT22;9065;51.050;13.758;2023-03-21T02:41:36;11.50;99.90
17879;DHT22;9065;51.050;13.758;2023-03-21T02:44:11;11.40;99.90
17879;DHT22;9065;51.050;13.758;2023-03-21T02:46:44;11.30;99.90
17879;DHT22;9065;51.050;13.758;2023-03-21T02:49:16;11.10;99.90
17879;DHT22;9065;51.050;13.758;2023-03-21T02:51:46;10.80;99.90
17879;DHT22;9065;51.050;13.758;2023-03-21T02:54:17;10.80;99.90
17879;DHT22;9065;51.050;13.758;2023-03-21T02:56:46;10.80;99.90
17879;DHT22;9065;51.050;13.758;2023-03-21T02:59:15;10.80;99.90
17879;DHT22;9065;51.050;13.758;2023-03-21T03:01:43;10.70;99.90
17879;DHT22;9065;51.050;13.758;2023-03-21T03:04:18;10.70;99.90
17879;DHT22;9065;51.050;13.758;2023-03-21T03:06:54;10.70;99.90
17879;DHT22;9065;51.050;13.758;2023-03-21T03:09:36;10.70;99.90
17879;DHT22;9065;51.050;13.758;2023-03-21T03:12:13;10.50;99.90
17879;DHT22;9065;51.050;13.758;2023-03-21T03:14:51;10.40;99.90
17879;DHT22;9065;51.050;13.758;2023-03-21T03:17:25;10.40;99.90
17879;DHT22;9065;51.050;13.758;2023-03-21T03:20:13;10.30;99.90
17879;DHT22;9065;51.050;13.758;2023-03-21T03:22:46;10.40;99.90
17879;DHT22;9065;51.050;13.758;2023-03-21T03:25:20;10.40;99.90
17879;DHT22;9065;51.050;13.758;2023-03-21T03:27:49;10.40;99.90
17879;DHT22;9065;51.050;13.758;2023-03-21T03:30:18;10.40;99.90
17879;DHT22;9065;51.050;13.758;2023-03-21T03:32:49;10.50;99.90
17879;DHT22;9065;51.050;13.758;2023-03-21T03:35:19;10.50;99.90
17879;DHT22;9065;51.050;13.758;2023-03-21T03:37:49;10.50;99.90
17879;DHT22;9065;51.050;13.758;2023-03-21T03:40:23;10.40;99.90
17879;DHT22;9065;51.050;13.758;2023-03-21T03:42:53;10.50;99.90
17879;DHT22;9065;51.050;13.758;2023-03-21T03:45:25;10.60;99.90
17879;DHT22;9065;51.050;13.758;2023-03-21T03:48:00;10.60;99.90
17879;DHT22;9065;51.050;13.758;2023-03-21T03:50:31;10.70;99.90
17879;DHT22;9065;51.050;13.758;2023-03-21T03:53:02;10.70;99.90
17879;DHT22;9065;51.050;13.758;2023-03-21T03:55:32;10.70;99.90
17879;DHT22;9065;51.050;13.758;2023-03-21T03:58:00;10.70;99.90
17879;DHT22;9065;51.050;13.758;2023-03-21T04:00:30;10.80;99.90
17879;DHT22;9065;51.050;13.758;2023-03-21T04:02:58;10.90;99.90
17879;DHT22;9065;51.050;13.758;2023-03-21T04:05:25;10.90;99.90
17879;DHT22;9065;51.050;13.758;2023-03-21T04:07:53;10.90;99.90
17879;DHT22;9065;51.050;13.758;2023-03-21T04:10:20;11.00;99.90
17879;DHT22;9065;51.050;13.758;2023-03-21T04:12:48;11.00;99.90
17879;DHT22;9065;51.050;13.758;2023-03-21T04:15:16;11.10;99.90
17879;DHT22;9065;51.050;13.758;2023-03-21T04:17:43;11.00;99.90
17879;DHT22;9065;51.050;13.758;2023-03-21T04:20:11;11.00;99.90
17879;DHT22;9065;51.050;13.758;2023-03-21T04:22:38;11.00;99.90
17879;DHT22;9065;51.050;13.758;2023-03-21T04:25:06;11.00;99.90
17879;DHT22;9065;51.050;13.758;2023-03-21T04:27:33;11.00;99.90
17879;DHT22;9065;51.050;13.758;2023-03-21T04:30:02;10.90;99.90
17879;DHT22;9065;51.050;13.758;2023-03-21T04:32:29;10.80;99.90
17879;DHT22;9065;51.050;13.758;2023-03-21T04:34:58;10.70;99.90
17879;DHT22;9065;51.050;13.758;2023-03-21T04:37:25;10.70;99.90
17879;DHT22;9065;51.050;13.758;2023-03-21T04:39:52;10.70;99.90
17879;DHT22;9065;51.050;13.758;2023-03-21T04:42:19;10.70;99.90
17879;DHT22;9065;51.050;13.758;2023-03-21T04:44:47;10.70;99.90
17879;DHT22;9065;51.050;13.758;2023-03-21T04:47:17;10.70;99.90
17879;DHT22;9065;51.050;13.758;2023-03-21T04:49:45;10.60;99.90
17879;DHT22;9065;51.050;13.758;2023-03-21T04:52:12;10.60;99.90
17879;DHT22;9065;51.050;13.758;2023-03-21T04:54:39;10.60;99.90
17879;DHT22;9065;51.050;13.758;2023-03-21T04:57:06;10.60;99.90
17879;DHT22;9065;51.050;13.758;2023-03-21T04:59:34;10.60;99.90
17879;DHT22;9065;51.050;13.758;2023-03-21T05:02:01;10.60;99.90
17879;DHT22;9065;51.050;13.758;2023-03-21T05:04:29;10.60;99.90
17879;DHT22;9065;51.050;13.758;2023-03-21T05:06:57;10.60;99.90
17879;DHT22;9065;51.050;13.758;2023-03-21T05:09:25;10.60;99.90
17879;DHT22;9065;51.050;13.758;2023-03-21T05:11:52;10.70;99.90
17879;DHT22;9065;51.050;13.758;2023-03-21T05:14:21;10.60;99.90
17879;DHT22;9065;51.050;13.758;2023-03-21T05:16:48;10.70;99.90
17879;DHT22;9065;51.050;13.758;2023-03-21T05:19:18;10.60;99.90
17879;DHT22;9065;51.050;13.758;2023-03-21T05:21:48;10.60;99.90
17879;DHT22;9065;51.050;13.758;2023-03-21T05:24:18;10.70;99.90
17879;DHT22;9065;51.050;13.758;2023-03-21T05:26:46;10.70;99.90
17879;DHT22;9065;51.050;13.758;2023-03-21T05:29:17;10.80;99.90
17879;DHT22;9065;51.050;13.758;2023-03-21T05:31:47;10.80;99.90
17879;DHT22;9065;51.050;13.758;2023-03-21T05:34:14;10.90;99.90
17879;DHT22;9065;51.050;13.758;2023-03-21T05:36:40;10.80;99.90
17879;DHT22;9065;51.050;13.758;2023-03-21T05:39:09;10.80;99.90
17879;DHT22;9065;51.050;13.758;2023-03-21T05:41:36;10.70;99.90
17879;DHT22;9065;51.050;13.758;2023-03-21T05:44:03;10.70;99.90
17879;DHT22;9065;51.050;13.758;2023-03-21T05:46:30;10.70;99.90
17879;DHT22;9065;51.050;13.758;2023-03-21T05:48:57;10.70;99.90
17879;DHT22;9065;51.050;13.758;2023-03-21T05:51:23;10.80;99.90
17879;DHT22;9065;51.050;13.758;2023-03-21T05:53:52;10.70;99.90
17879;DHT22;9065;51.050;13.758;2023-03-21T05:56:20;10.70;99.90
17879;DHT22;9065;51.050;13.758;2023-03-21T05:58:47;10.80;99.90
17879;DHT22;9065;51.050;13.758;2023-03-21T06:01:14;10.90;99.90
17879;DHT22;9065;51.050;13.758;2023-03-21T06:03:41;10.90;99.90
17879;DHT22;9065;51.050;13.758;2023-03-21T06:06:08;10.90;99.90
17879;DHT22;9065;51.050;13.758;2023-03-21T06:08:36;10.80;99.90
17879;DHT22;9065;51.050;13.758;2023-03-21T06:11:03;10.80;99.90
17879;DHT22;9065;51.050;13.758;2023-03-21T06:13:31;10.70;99.90
17879;DHT22;9065;51.050;13.758;2023-03-21T06:15:58;10.70;99.90
17879;DHT22;9065;51.050;13.758;2023-03-21T06:18:25;10.80;99.90
17879;DHT22;9065;51.050;13.758;2023-03-21T06:20:52;10.80;99.90
17879;DHT22;9065;51.050;13.758;2023-03-21T06:23:21;10.80;99.90
17879;DHT22;9065;51.050;13.758;2023-03-21T06:25:48;10.90;99.90
17879;DHT22;9065;51.050;13.758;2023-03-21T06:28:15;10.90;99.90
17879;DHT22;9065;51.050;13.758;2023-03-21T06:30:48;11.00;99.90
17879;DHT22;9065;51.050;13.758;2023-03-21T06:33:15;11.10;99.90
17879;DHT22;9065;51.050;13.758;2023-03-21T06:35:42;11.30;99.90
17879;DHT22;9065;51.050;13.758;2023-03-21T06:38:10;11.40;99.90
17879;DHT22;9065;51.050;13.758;2023-03-21T06:40:37;11.40;99.90
17879;DHT22;9065;51.050;13.758;2023-03-21T06:43:05;11.50;99.90
17879;DHT22;9065;51.050;13.758;2023-03-21T06:45:32;11.50;99.90
17879;DHT22;9065;51.050;13.758;2023-03-21T06:48:01;11.50;99.90
17879;DHT22;9065;51.050;13.758;2023-03-21T06:50:28;11.50;99.90
17879;DHT22;9065;51.050;13.758;2023-03-21T06:52:55;11.50;99.90
17879;DHT22;9065;51.050;13.758;2023-03-21T06:55:23;11.60;99.90
17879;DHT22;9065;51.050;13.758;2023-03-21T06:57:51;11.60;99.90
17879;DHT22;9065;51.050;13.758;2023-03-21T07:00:19;11.60;99.90
17879;DHT22;9065;51.050;13.758;2023-03-21T07:02:47;11.60;99.90
17879;DHT22;9065;51.050;13.758;2023-03-21T07:05:17;11.60;99.90
17879;DHT22;9065;51.050;13.758;2023-03-21T07:07:44;11.60;99.90
17879;DHT22;9065;51.050;13.758;2023-03-21T07:10:14;11.70;99.90
17879;DHT22;9065;51.050;13.758;2023-03-21T07:12:41;11.60;99.90
17879;DHT22;9065;51.050;13.758;2023-03-21T07:15:10;11.70;99.90
17879;DHT22;9065;51.050;13.758;2023-03-21T07:17:37;11.70;99.90
17879;DHT22;9065;51.050;13.758;2023-03-21T07:20:05;11.80;99.90
17879;DHT22;9065;51.050;13.758;2023-03-21T07:22:36;11.90;99.90
17879;DHT22;9065;51.050;13.758;2023-03-21T07:25:04;12.00;99.90
17879;DHT22;9065;51.050;13.758;2023-03-21T07:27:43;12.10;99.90
17879;DHT22;9065;51.050;13.758;2023-03-21T07:30:11;12.40;99.90
17879;DHT22;9065;51.050;13.758;2023-03-21T07:32:39;12.40;99.90
17879;DHT22;9065;51.050;13.758;2023-03-21T07:35:07;12.40;99.90
17879;DHT22;9065;51.050;13.758;2023-03-21T07:37:47;12.20;99.90
17879;DHT22;9065;51.050;13.758;2023-03-21T07:40:14;12.10;99.90
17879;DHT22;9065;51.050;13.758;2023-03-21T07:42:41;12.00;99.90
17879;DHT22;9065;51.050;13.758;2023-03-21T07:45:11;11.90;99.90
17879;DHT22;9065;51.050;13.758;2023-03-21T07:47:39;11.90;99.90
17879;DHT22;9065;51.050;13.758;2023-03-21T07:50:09;11.80;99.90
17879;DHT22;9065;51.050;13.758;2023-03-21T07:52:38;11.70;99.90
17879;DHT22;9065;51.050;13.758;2023-03-21T07:55:08;11.70;99.90
17879;DHT22;9065;51.050;13.758;2023-03-21T07:57:35;11.70;99.90
17879;DHT22;9065;51.050;13.758;2023-03-21T08:00:03;11.80;99.90
17879;DHT22;9065;51.050;13.758;2023-03-21T08:02:32;11.70;99.90
17879;DHT22;9065;51.050;13.758;2023-03-21T08:04:59;11.80;99.90
17879;DHT22;9065;51.050;13.758;2023-03-21T08:07:27;11.80;99.90
17879;DHT22;9065;51.050;13.758;2023-03-21T08:09:56;11.90;99.90
17879;DHT22;9065;51.050;13.758;2023-03-21T08:12:44;12.00;99.90
17879;DHT22;9065;51.050;13.758;2023-03-21T08:15:12;12.20;99.90
17879;DHT22;9065;51.050;13.758;2023-03-21T08:17:40;12.50;99.90
17879;DHT22;9065;51.050;13.758;2023-03-21T08:20:12;12.80;99.90
17879;DHT22;9065;51.050;13.758;2023-03-21T08:22:41;13.10;99.90
17879;DHT22;9065;51.050;13.758;2023-03-21T08:25:12;13.10;99.90
17879;DHT22;9065;51.050;13.758;2023-03-21T08:27:50;13.20;99.90
17879;DHT22;9065;51.050;13.758;2023-03-21T08:30:21;13.30;99.90
17879;DHT22;9065;51.050;13.758;2023-03-21T08:32:48;13.40;99.90
17879;DHT22;9065;51.050;13.758;2023-03-21T08:35:17;13.50;99.90
17879;DHT22;9065;51.050;13.758;2023-03-21T08:38:04;13.40;99.90
17879;DHT22;9065;51.050;13.758;2023-03-21T08:40:36;13.50;99.90
17879;DHT22;9065;51.050;13.758;2023-03-21T08:43:06;13.60;99.90
17879;DHT22;9065;51.050;13.758;2023-03-21T08:45:36;13.60;99.90
17879;DHT22;9065;51.050;13.758;2023-03-21T08:48:04;13.50;99.90
17879;DHT22;9065;51.050;13.758;2023-03-21T08:50:31;13.60;99.90
17879;DHT22;9065;51.050;13.758;2023-03-21T08:52:58;13.60;99.90
17879;DHT22;9065;51.050;13.758;2023-03-21T08:55:29;13.60;99.90
17879;DHT22;9065;51.050;13.758;2023-03-21T08:57:59;13.60;99.90
17879;DHT22;9065;51.050;13.758;2023-03-21T09:00:27;13.60;99.90
17879;DHT22;9065;51.050;13.758;2023-03-21T09:02:54;13.70;99.90
17879;DHT22;9065;51.050;13.758;2023-03-21T09:05:23;13.80;99.90
17879;DHT22;9065;51.050;13.758;2023-03-21T09:07:52;14.00;99.90
17879;DHT22;9065;51.050;13.758;2023-03-21T09:10:21;14.10;99.90
17879;DHT22;9065;51.050;13.758;2023-03-21T09:12:49;14.30;99.90
17879;DHT22;9065;51.050;13.758;2023-03-21T09:15:20;14.60;99.90
17879;DHT22;9065;51.050;13.758;2023-03-21T09:17:49;14.90;99.90
17879;DHT22;9065;51.050;13.758;2023-03-21T09:20:18;15.00;99.90
17879;DHT22;9065;51.050;13.758;2023-03-21T09:22:51;15.30;99.90
17879;DHT22;9065;51.050;13.758;2023-03-21T09:25:19;15.30;99.90
17879;DHT22;9065;51.050;13.758;2023-03-21T09:27:46;15.50;99.90
17879;DHT22;9065;51.050;13.758;2023-03-21T09:30:15;15.60;99.90
17879;DHT22;9065;51.050;13.758;2023-03-21T09:32:47;15.50;99.90
17879;DHT22;9065;51.050;13.758;2023-03-21T09:35:15;15.40;99.90
17879;DHT22;9065;51.050;13.758;2023-03-21T09:37:43;15.50;99.90
17879;DHT22;9065;51.050;13.758;2023-03-21T09:40:17;15.60;99.90
17879;DHT22;9065;51.050;13.758;2023-03-21T09:43:00;15.90;99.90
17879;DHT22;9065;51.050;13.758;2023-03-21T09:45:36;16.00;99.90
17879;DHT22;9065;51.050;13.758;2023-03-21T09:48:14;15.90;99.90
17879;DHT22;9065;51.050;13.758;2023-03-21T09:50:44;15.70;99.90
17879;DHT22;9065;51.050;13.758;2023-03-21T09:53:16;15.70;99.90
17879;DHT22;9065;51.050;13.758;2023-03-21T09:55:46;15.30;99.90
17879;DHT22;9065;51.050;13.758;2023-03-21T09:58:22;15.00;99.90
17879;DHT22;9065;51.050;13.758;2023-03-21T10:00:54;15.00;99.90
17879;DHT22;9065;51.050;13.758;2023-03-21T10:03:29;14.90;99.90
17879;DHT22;9065;51.050;13.758;2023-03-21T10:06:03;14.90;99.90
17879;DHT22;9065;51.050;13.758;2023-03-21T10:08:35;15.10;99.90
17879;DHT22;9065;51.050;13.758;2023-03-21T10:11:08;15.40;99.90
17879;DHT22;9065;51.050;13.758;2023-03-21T10:13:41;15.70;99.90
17879;DHT22;9065;51.050;13.758;2023-03-21T10:16:13;16.00;99.90
17879;DHT22;9065;51.050;13.758;2023-03-21T10:18:45;16.30;99.90
17879;DHT22;9065;51.050;13.758;2023-03-21T10:21:24;16.50;99.90
17879;DHT22;9065;51.050;13.758;2023-03-21T10:23:59;16.60;99.90
17879;DHT22;9065;51.050;13.758;2023-03-21T10:26:38;16.70;99.90
17879;DHT22;9065;51.050;13.758;2023-03-21T10:29:05;16.80;99.90
17879;DHT22;9065;51.050;13.758;2023-03-21T10:31:34;17.00;99.90
17879;DHT22;9065;51.050;13.758;2023-03-21T10:34:08;17.10;99.90
17879;DHT22;9065;51.050;13.758;2023-03-21T10:36:40;17.20;99.90
17879;DHT22;9065;51.050;13.758;2023-03-21T10:39:17;17.10;99.90
17879;DHT22;9065;51.050;13.758;2023-03-21T10:41:45;16.90;99.90
17879;DHT22;9065;51.050;13.758;2023-03-21T10:44:16;17.00;99.90
17879;DHT22;9065;51.050;13.758;2023-03-21T10:46:52;17.10;99.90
17879;DHT22;9065;51.050;13.758;2023-03-21T10:49:21;17.40;99.90
17879;DHT22;9065;51.050;13.758;2023-03-21T10:51:55;17.90;99.90
17879;DHT22;9065;51.050;13.758;2023-03-21T10:54:33;17.80;99.90
17879;DHT22;9065;51.050;13.758;2023-03-21T10:57:09;17.60;99.90
17879;DHT22;9065;51.050;13.758;2023-03-21T10:59:40;17.50;99.90
17879;DHT22;9065;51.050;13.758;2023-03-21T11:02:17;17.50;99.90
17879;DHT22;9065;51.050;13.758;2023-03-21T11:04:53;17.70;99.90
17879;DHT22;9065;51.050;13.758;2023-03-21T11:07:21;18.20;99.90
17879;DHT22;9065;51.050;13.758;2023-03-21T11:09:57;18.50;99.90
17879;DHT22;9065;51.050;13.758;2023-03-21T11:12:30;18.30;99.90
17879;DHT22;9065;51.050;13.758;2023-03-21T11:15:29;18.20;99.90
17879;DHT22;9065;51.050;13.758;2023-03-21T11:21:11;18.00;99.90
17879;DHT22;9065;51.050;13.758;2023-03-21T11:23:47;17.70;99.90
17879;DHT22;9065;51.050;13.758;2023-03-21T11:26:19;17.50;99.90
17879;DHT22;9065;51.050;13.758;2023-03-21T11:28:50;17.40;99.90
17879;DHT22;9065;51.050;13.758;2023-03-21T11:31:22;17.60;99.90
17879;DHT22;9065;51.050;13.758;2023-03-21T11:34:06;17.70;99.90
17879;DHT22;9065;51.050;13.758;2023-03-21T11:36:36;17.80;99.90
17879;DHT22;9065;51.050;13.758;2023-03-21T11:39:23;18.00;99.90
17879;DHT22;9065;51.050;13.758;2023-03-21T11:41:53;18.10;99.90
17879;DHT22;9065;51.050;13.758;2023-03-21T11:44:29;18.30;99.90
17879;DHT22;9065;51.050;13.758;2023-03-21T11:46:56;18.40;99.90
17879;DHT22;9065;51.050;13.758;2023-03-21T11:49:26;18.50;99.90
17879;DHT22;9065;51.050;13.758;2023-03-21T11:52:03;18.60;99.90
17879;DHT22;9065;51.050;13.758;2023-03-21T11:54:39;18.70;99.90
17879;DHT22;9065;51.050;13.758;2023-03-21T11:57:23;18.40;99.90
17879;DHT22;9065;51.050;13.758;2023-03-21T12:00:00;18.30;99.90
17879;DHT22;9065;51.050;13.758;2023-03-21T12:03:03;18.60;99.90
17879;DHT22;9065;51.050;13.758;2023-03-21T12:05:42;19.00;99.90
17879;DHT22;9065;51.050;13.758;2023-03-21T12:08:27;19.30;99.90
17879;DHT22;9065;51.050;13.758;2023-03-21T12:11:06;19.10;99.90
17879;DHT22;9065;51.050;13.758;2023-03-21T12:13:47;18.80;99.90
17879;DHT22;9065;51.050;13.758;2023-03-21T12:16:41;18.50;99.90
17879;DHT22;9065;51.050;13.758;2023-03-21T12:19:40;18.50;99.90
17879;DHT22;9065;51.050;13.758;2023-03-21T12:22:27;18.30;99.90
17879;DHT22;9065;51.050;13.758;2023-03-21T12:25:05;17.90;99.90
17879;DHT22;9065;51.050;13.758;2023-03-21T12:27:43;17.80;99.90
17879;DHT22;9065;51.050;13.758;2023-03-21T12:30:47;17.80;99.90
17879;DHT22;9065;51.050;13.758;2023-03-21T12:33:34;17.70;99.90
17879;DHT22;9065;51.050;13.758;2023-03-21T12:36:21;18.00;99.90
17879;DHT22;9065;51.050;13.758;2023-03-21T12:39:11;18.10;99.90
17879;DHT22;9065;51.050;13.758;2023-03-21T12:44:53;17.80;99.90
17879;DHT22;9065;51.050;13.758;2023-03-21T12:47:26;17.90;99.90
17879;DHT22;9065;51.050;13.758;2023-03-21T12:49:59;18.20;99.90
17879;DHT22;9065;51.050;13.758;2023-03-21T12:52:36;18.20;99.90
17879;DHT22;9065;51.050;13.758;2023-03-21T12:55:13;18.10;99.90
17879;DHT22;9065;51.050;13.758;2023-03-21T12:57:47;18.20;99.90
17879;DHT22;9065;51.050;13.758;2023-03-21T13:00:17;18.20;99.90
17879;DHT22;9065;51.050;13.758;2023-03-21T13:02:50;18.00;99.90
17879;DHT22;9065;51.050;13.758;2023-03-21T13:05:25;18.20;99.90
17879;DHT22;9065;51.050;13.758;2023-03-21T13:07:56;18.30;99.90
17879;DHT22;9065;51.050;13.758;2023-03-21T13:10:25;18.20;99.90
17879;DHT22;9065;51.050;13.758;2023-03-21T13:13:11;18.10;99.90
17879;DHT22;9065;51.050;13.758;2023-03-21T13:15:59;18.10;99.90
17879;DHT22;9065;51.050;13.758;2023-03-21T13:18:36;18.00;99.90
17879;DHT22;9065;51.050;13.758;2023-03-21T13:21:11;17.50;99.90
17879;DHT22;9065;51.050;13.758;2023-03-21T13:23:40;17.30;99.90
17879;DHT22;9065;51.050;13.758;2023-03-21T13:26:32;17.20;99.90
17879;DHT22;9065;51.050;13.758;2023-03-21T13:29:21;17.60;99.90
17879;DHT22;9065;51.050;13.758;2023-03-21T13:31:50;18.00;99.90
17879;DHT22;9065;51.050;13.758;2023-03-21T13:34:20;18.30;99.90
17879;DHT22;9065;51.050;13.758;2023-03-21T13:36:49;18.40;99.90
17879;DHT22;9065;51.050;13.758;2023-03-21T13:39:18;18.50;99.90
17879;DHT22;9065;51.050;13.758;2023-03-21T13:41:47;18.60;99.90
17879;DHT22;9065;51.050;13.758;2023-03-21T13:44:31;18.70;99.90
17879;DHT22;9065;51.050;13.758;2023-03-21T13:47:03;18.80;99.90
17879;DHT22;9065;51.050;13.758;2023-03-21T13:49:32;18.90;99.90
17879;DHT22;9065;51.050;13.758;2023-03-21T13:52:02;18.90;99.90
17879;DHT22;9065;51.050;13.758;2023-03-21T13:54:52;18.70;99.90
17879;DHT22;9065;51.050;13.758;2023-03-21T13:57:35;18.80;99.90
17879;DHT22;9065;51.050;13.758;2023-03-21T14:00:19;18.90;99.90
17879;DHT22;9065;51.050;13.758;2023-03-21T14:02:59;18.80;99.90
17879;DHT22;9065;51.050;13.758;2023-03-21T14:05:28;18.60;99.90
17879;DHT22;9065;51.050;13.758;2023-03-21T14:07:57;18.60;99.90
17879;DHT22;9065;51.050;13.758;2023-03-21T14:10:32;18.60;99.90
17879;DHT22;9065;51.050;13.758;2023-03-21T14:13:01;18.60;99.90
17879;DHT22;9065;51.050;13.758;2023-03-21T14:15:36;18.50;99.90
17879;DHT22;9065;51.050;13.758;2023-03-21T14:18:05;18.40;99.90
17879;DHT22;9065;51.050;13.758;2023-03-21T14:20:35;18.50;99.90
17879;DHT22;9065;51.050;13.758;2023-03-21T14:23:04;18.50;99.90
17879;DHT22;9065;51.050;13.758;2023-03-21T14:25:33;18.40;99.90
17879;DHT22;9065;51.050;13.758;2023-03-21T14:28:14;18.40;99.90
17879;DHT22;9065;51.050;13.758;2023-03-21T14:30:44;18.30;99.90
17879;DHT22;9065;51.050;13.758;2023-03-21T14:33:16;18.40;99.90
17879;DHT22;9065;51.050;13.758;2023-03-21T14:35:46;18.40;99.90
17879;DHT22;9065;51.050;13.758;2023-03-21T14:38:19;18.30;99.90
17879;DHT22;9065;51.050;13.758;2023-03-21T14:40:49;18.10;99.90
17879;DHT22;9065;51.050;13.758;2023-03-21T14:43:17;18.00;99.90
17879;DHT22;9065;51.050;13.758;2023-03-21T14:45:49;18.00;99.90
17879;DHT22;9065;51.050;13.758;2023-03-21T14:48:18;17.90;99.90
17879;DHT22;9065;51.050;13.758;2023-03-21T14:50:48;17.80;99.90
17879;DHT22;9065;51.050;13.758;2023-03-21T14:53:18;18.00;99.90
17879;DHT22;9065;51.050;13.758;2023-03-21T14:55:48;18.00;99.90
17879;DHT22;9065;51.050;13.758;2023-03-21T14:58:16;18.00;99.90
17879;DHT22;9065;51.050;13.758;2023-03-21T15:00:49;17.90;99.90
17879;DHT22;9065;51.050;13.758;2023-03-21T15:03:17;17.90;99.90
17879;DHT22;9065;51.050;13.758;2023-03-21T15:05:45;17.90;99.90
17879;DHT22;9065;51.050;13.758;2023-03-21T15:08:14;17.70;99.90
17879;DHT22;9065;51.050;13.758;2023-03-21T15:10:45;17.40;99.90
17879;DHT22;9065;51.050;13.758;2023-03-21T15:13:22;17.10;99.90
17879;DHT22;9065;51.050;13.758;2023-03-21T15:15:52;17.00;99.90
17879;DHT22;9065;51.050;13.758;2023-03-21T15:18:24;16.90;99.90
17879;DHT22;9065;51.050;13.758;2023-03-21T15:20:53;16.80;99.90
17879;DHT22;9065;51.050;13.758;2023-03-21T15:23:27;16.70;99.90
17879;DHT22;9065;51.050;13.758;2023-03-21T15:25:56;16.60;99.90
17879;DHT22;9065;51.050;13.758;2023-03-21T15:28:27;16.60;99.90
17879;DHT22;9065;51.050;13.758;2023-03-21T15:30:55;16.60;99.90
17879;DHT22;9065;51.050;13.758;2023-03-21T15:33:23;16.60;99.90
17879;DHT22;9065;51.050;13.758;2023-03-21T15:35:53;16.70;99.90
17879;DHT22;9065;51.050;13.758;2023-03-21T15:38:23;16.80;99.90
17879;DHT22;9065;51.050;13.758;2023-03-21T15:41:12;16.90;99.90
17879;DHT22;9065;51.050;13.758;2023-03-21T15:43:40;17.10;99.90
17879;DHT22;9065;51.050;13.758;2023-03-21T15:46:14;17.20;99.90
17879;DHT22;9065;51.050;13.758;2023-03-21T15:48:42;17.10;99.90
17879;DHT22;9065;51.050;13.758;2023-03-21T15:51:14;16.80;99.90
17879;DHT22;9065;51.050;13.758;2023-03-21T15:53:43;16.80;99.90
17879;DHT22;9065;51.050;13.758;2023-03-21T15:56:10;16.80;99.90
17879;DHT22;9065;51.050;13.758;2023-03-21T15:58:45;16.80;99.90
17879;DHT22;9065;51.050;13.758;2023-03-21T16:01:17;16.70;99.90
17879;DHT22;9065;51.050;13.758;2023-03-21T16:03:46;16.50;99.90
17879;DHT22;9065;51.050;13.758;2023-03-21T16:06:16;16.30;99.90
17879;DHT22;9065;51.050;13.758;2023-03-21T16:08:45;16.10;99.90
17879;DHT22;9065;51.050;13.758;2023-03-21T16:11:18;16.20;99.90